sensor_id;sensor_type;location;lat;lon;timestamp;temperature;humidity
820;DHT22;392;48.838;2.322;2023-06-05T00:00:51;20.70;17.10
820;DHT22;392;48.838;2.322;2023-06-05T00:03:18;20.40;17.80
820;DHT22;392;48.838;2.322;2023-06-05T00:05:46;20.70;18.00
820;DHT22;392;48.838;2.322;2023-06-05T00:08:13;20.80;17.70
820;DHT22;392;48.838;2.322;2023-06-05T00:10:41;20.90;17.80
820;DHT22;392;48.838;2.322;2023-06-05T00:13:08;21.10;17.50
820;DHT22;392;48.838;2.322;2023-06-05T00:15:37;21.20;16.50
820;DHT22;392;48.838;2.322;2023-06-05T00:18:04;21.00;17.00
820;DHT22;392;48.838;2.322;2023-06-05T00:20:32;20.50;17.90
820;DHT22;392;48.838;2.322;2023-06-05T00:22:59;20.30;18.40
820;DHT22;392;48.838;2.322;2023-06-05T00:25:26;20.40;18.30
820;DHT22;392;48.838;2.322;2023-06-05T00:27:54;20.40;17.90
820;DHT22;392;48.838;2.322;2023-06-05T00:30:21;20.50;17.80
820;DHT22;392;48.838;2.322;2023-06-05T00:32:49;20.40;17.80
820;DHT22;392;48.838;2.322;2023-06-05T00:35:17;20.40;19.50
820;DHT22;392;48.838;2.322;2023-06-05T00:37:45;20.70;19.00
820;DHT22;392;48.838;2.322;2023-06-05T00:40:13;20.80;17.90
820;DHT22;392;48.838;2.322;2023-06-05T00:42:40;20.80;18.40
820;DHT22;392;48.838;2.322;2023-06-05T00:45:08;21.00;17.60
820;DHT22;392;48.838;2.322;2023-06-05T00:47:35;21.00;18.90
820;DHT22;392;48.838;2.322;2023-06-05T00:50:07;21.00;18.30
820;DHT22;392;48.838;2.322;2023-06-05T00:52:35;20.80;19.10
820;DHT22;392;48.838;2.322;2023-06-05T00:55:03;20.70;18.40
820;DHT22;392;48.838;2.322;2023-06-05T00:57:32;20.50;18.80
820;DHT22;392;48.838;2.322;2023-06-05T01:00:02;20.30;19.10
820;DHT22;392;48.838;2.322;2023-06-05T01:02:32;20.30;18.40
820;DHT22;392;48.838;2.322;2023-06-05T01:05:04;20.10;19.60
820;DHT22;392;48.838;2.322;2023-06-05T01:07:32;19.70;19.30
820;DHT22;392;48.838;2.322;2023-06-05T01:10:00;19.30;20.10
820;DHT22;392;48.838;2.322;2023-06-05T01:12:33;19.10;21.20
820;DHT22;392;48.838;2.322;2023-06-05T01:15:06;18.90;22.50
820;DHT22;392;48.838;2.322;2023-06-05T01:17:34;19.10;21.90
820;DHT22;392;48.838;2.322;2023-06-05T01:20:04;19.40;21.90
820;DHT22;392;48.838;2.322;2023-06-05T01:22:34;19.50;20.90
820;DHT22;392;48.838;2.322;2023-06-05T01:25:07;19.30;21.10
820;DHT22;392;48.838;2.322;2023-06-05T01:27:40;19.20;21.40
820;DHT22;392;48.838;2.322;2023-06-05T01:30:15;19.30;22.40
820;DHT22;392;48.838;2.322;2023-06-05T01:32:49;19.30;22.40
820;DHT22;392;48.838;2.322;2023-06-05T01:35:22;19.20;21.10
820;DHT22;392;48.838;2.322;2023-06-05T01:37:54;19.30;22.20
820;DHT22;392;48.838;2.322;2023-06-05T01:40:26;19.40;20.80
820;DHT22;392;48.838;2.322;2023-06-05T01:42:54;19.40;22.10
820;DHT22;392;48.838;2.322;2023-06-05T01:45:22;19.10;21.10
820;DHT22;392;48.838;2.322;2023-06-05T01:47:50;18.80;22.00
820;DHT22;392;48.838;2.322;2023-06-05T01:50:19;18.40;22.90
820;DHT22;392;48.838;2.322;2023-06-05T01:52:46;18.10;23.70
820;DHT22;392;48.838;2.322;2023-06-05T01:55:17;18.10;24.10
820;DHT22;392;48.838;2.322;2023-06-05T01:57:47;18.30;23.90
820;DHT22;392;48.838;2.322;2023-06-05T02:00:15;18.30;23.90
820;DHT22;392;48.838;2.322;2023-06-05T02:02:46;18.30;23.90
820;DHT22;392;48.838;2.322;2023-06-05T02:05:14;18.40;24.90
820;DHT22;392;48.838;2.322;2023-06-05T02:07:45;18.60;23.50
820;DHT22;392;48.838;2.322;2023-06-05T02:10:15;18.60;23.10
820;DHT22;392;48.838;2.322;2023-06-05T02:12:47;18.50;23.50
820;DHT22;392;48.838;2.322;2023-06-05T02:15:14;18.40;23.60
820;DHT22;392;48.838;2.322;2023-06-05T02:17:42;18.20;24.10
820;DHT22;392;48.838;2.322;2023-06-05T02:20:16;18.00;24.70
820;DHT22;392;48.838;2.322;2023-06-05T02:22:44;17.80;25.30
820;DHT22;392;48.838;2.322;2023-06-05T02:25:16;17.70;25.90
820;DHT22;392;48.838;2.322;2023-06-05T02:27:43;17.70;25.90
820;DHT22;392;48.838;2.322;2023-06-05T02:30:13;17.60;26.00
820;DHT22;392;48.838;2.322;2023-06-05T02:32:41;17.50;26.40
820;DHT22;392;48.838;2.322;2023-06-05T02:35:10;17.40;26.40
820;DHT22;392;48.838;2.322;2023-06-05T02:37:38;17.40;26.40
820;DHT22;392;48.838;2.322;2023-06-05T02:40:10;17.40;26.80
820;DHT22;392;48.838;2.322;2023-06-05T02:42:38;17.50;28.60
820;DHT22;392;48.838;2.322;2023-06-05T02:45:07;17.70;26.60
820;DHT22;392;48.838;2.322;2023-06-05T02:47:37;17.70;26.90
820;DHT22;392;48.838;2.322;2023-06-05T02:50:06;17.90;25.90
820;DHT22;392;48.838;2.322;2023-06-05T02:52:37;17.70;26.20
820;DHT22;392;48.838;2.322;2023-06-05T02:55:12;17.70;26.60
820;DHT22;392;48.838;2.322;2023-06-05T02:57:41;17.80;27.60
820;DHT22;392;48.838;2.322;2023-06-05T03:00:12;18.00;26.80
820;DHT22;392;48.838;2.322;2023-06-05T03:02:44;18.10;26.10
820;DHT22;392;48.838;2.322;2023-06-05T03:05:17;18.10;25.10
820;DHT22;392;48.838;2.322;2023-06-05T03:07:50;18.10;26.50
820;DHT22;392;48.838;2.322;2023-06-05T03:10:20;18.10;25.60
820;DHT22;392;48.838;2.322;2023-06-05T03:12:48;17.90;26.30
820;DHT22;392;48.838;2.322;2023-06-05T03:15:15;17.90;26.70
820;DHT22;392;48.838;2.322;2023-06-05T03:17:45;18.00;27.20
820;DHT22;392;48.838;2.322;2023-06-05T03:20:13;18.20;27.20
820;DHT22;392;48.838;2.322;2023-06-05T03:22:40;18.50;25.00
820;DHT22;392;48.838;2.322;2023-06-05T03:25:09;18.40;25.10
820;DHT22;392;48.838;2.322;2023-06-05T03:27:39;18.30;25.60
820;DHT22;392;48.838;2.322;2023-06-05T03:30:08;18.20;26.30
820;DHT22;392;48.838;2.322;2023-06-05T03:32:42;18.30;25.20
820;DHT22;392;48.838;2.322;2023-06-05T03:35:12;17.90;26.70
820;DHT22;392;48.838;2.322;2023-06-05T03:37:40;18.00;26.80
820;DHT22;392;48.838;2.322;2023-06-05T03:40:08;18.00;26.80
820;DHT22;392;48.838;2.322;2023-06-05T03:42:38;18.00;26.80
820;DHT22;392;48.838;2.322;2023-06-05T03:45:06;17.80;26.70
820;DHT22;392;48.838;2.322;2023-06-05T03:47:36;17.60;27.30
820;DHT22;392;48.838;2.322;2023-06-05T03:50:07;17.50;29.00
820;DHT22;392;48.838;2.322;2023-06-05T03:52:39;17.50;28.90
820;DHT22;392;48.838;2.322;2023-06-05T03:55:08;17.50;28.00
820;DHT22;392;48.838;2.322;2023-06-05T03:57:36;17.50;28.50
820;DHT22;392;48.838;2.322;2023-06-05T04:00:06;17.40;28.90
820;DHT22;392;48.838;2.322;2023-06-05T04:02:39;17.30;29.00
820;DHT22;392;48.838;2.322;2023-06-05T04:05:10;17.20;30.00
820;DHT22;392;48.838;2.322;2023-06-05T04:07:40;17.30;29.40
820;DHT22;392;48.838;2.322;2023-06-05T04:10:09;17.20;29.30
820;DHT22;392;48.838;2.322;2023-06-05T04:12:37;17.10;31.60
820;DHT22;392;48.838;2.322;2023-06-05T04:15:07;17.10;30.20
820;DHT22;392;48.838;2.322;2023-06-05T04:17:36;17.20;30.40
820;DHT22;392;48.838;2.322;2023-06-05T04:20:05;17.10;30.20
820;DHT22;392;48.838;2.322;2023-06-05T04:22:35;16.90;31.30
820;DHT22;392;48.838;2.322;2023-06-05T04:25:05;16.90;32.50
820;DHT22;392;48.838;2.322;2023-06-05T04:27:34;16.80;32.70
820;DHT22;392;48.838;2.322;2023-06-05T04:30:01;16.90;34.40
820;DHT22;392;48.838;2.322;2023-06-05T04:32:29;17.00;33.20
820;DHT22;392;48.838;2.322;2023-06-05T04:35:00;17.00;31.80
820;DHT22;392;48.838;2.322;2023-06-05T04:37:28;16.90;35.20
820;DHT22;392;48.838;2.322;2023-06-05T04:39:56;17.00;32.60
820;DHT22;392;48.838;2.322;2023-06-05T04:42:26;17.10;33.50
820;DHT22;392;48.838;2.322;2023-06-05T04:44:57;17.10;31.70
820;DHT22;392;48.838;2.322;2023-06-05T04:47:27;17.20;32.90
820;DHT22;392;48.838;2.322;2023-06-05T04:49:57;17.60;32.20
820;DHT22;392;48.838;2.322;2023-06-05T04:52:25;17.90;30.00
820;DHT22;392;48.838;2.322;2023-06-05T04:54:55;18.10;29.40
820;DHT22;392;48.838;2.322;2023-06-05T04:57:26;18.30;28.60
820;DHT22;392;48.838;2.322;2023-06-05T04:59:54;18.20;28.10
820;DHT22;392;48.838;2.322;2023-06-05T05:02:23;18.10;29.90
820;DHT22;392;48.838;2.322;2023-06-05T05:04:51;18.20;28.40
820;DHT22;392;48.838;2.322;2023-06-05T05:07:18;18.20;29.20
820;DHT22;392;48.838;2.322;2023-06-05T05:09:48;18.30;27.60
820;DHT22;392;48.838;2.322;2023-06-05T05:12:16;18.00;28.50
820;DHT22;392;48.838;2.322;2023-06-05T05:14:45;17.70;30.50
820;DHT22;392;48.838;2.322;2023-06-05T05:17:12;17.50;30.50
820;DHT22;392;48.838;2.322;2023-06-05T05:19:43;17.30;30.70
820;DHT22;392;48.838;2.322;2023-06-05T05:22:10;17.30;31.00
820;DHT22;392;48.838;2.322;2023-06-05T05:24:37;17.30;32.20
820;DHT22;392;48.838;2.322;2023-06-05T05:27:06;17.60;30.70
820;DHT22;392;48.838;2.322;2023-06-05T05:29:35;18.00;29.20
820;DHT22;392;48.838;2.322;2023-06-05T05:32:04;18.30;29.30
820;DHT22;392;48.838;2.322;2023-06-05T05:34:32;18.40;28.50
820;DHT22;392;48.838;2.322;2023-06-05T05:37:00;18.50;28.10
820;DHT22;392;48.838;2.322;2023-06-05T05:39:29;18.60;28.40
820;DHT22;392;48.838;2.322;2023-06-05T05:41:57;18.60;27.70
820;DHT22;392;48.838;2.322;2023-06-05T05:44:25;18.70;28.30
820;DHT22;392;48.838;2.322;2023-06-05T05:46:52;19.00;26.40
820;DHT22;392;48.838;2.322;2023-06-05T05:49:21;18.70;26.70
820;DHT22;392;48.838;2.322;2023-06-05T05:51:49;18.20;28.00
820;DHT22;392;48.838;2.322;2023-06-05T05:54:17;17.80;29.60
820;DHT22;392;48.838;2.322;2023-06-05T05:56:44;17.70;29.90
820;DHT22;392;48.838;2.322;2023-06-05T05:59:13;17.80;30.80
820;DHT22;392;48.838;2.322;2023-06-05T06:01:41;18.10;29.50
820;DHT22;392;48.838;2.322;2023-06-05T06:04:08;18.60;28.60
820;DHT22;392;48.838;2.322;2023-06-05T06:06:37;18.80;27.50
820;DHT22;392;48.838;2.322;2023-06-05T06:09:05;19.00;26.20
820;DHT22;392;48.838;2.322;2023-06-05T06:11:35;19.00;26.50
820;DHT22;392;48.838;2.322;2023-06-05T06:14:03;19.00;26.40
820;DHT22;392;48.838;2.322;2023-06-05T06:16:30;19.00;26.30
820;DHT22;392;48.838;2.322;2023-06-05T06:18:57;19.00;26.10
820;DHT22;392;48.838;2.322;2023-06-05T06:21:24;19.10;26.20
820;DHT22;392;48.838;2.322;2023-06-05T06:23:53;19.20;25.40
820;DHT22;392;48.838;2.322;2023-06-05T06:26:20;19.40;26.10
820;DHT22;392;48.838;2.322;2023-06-05T06:28:47;19.70;24.50
820;DHT22;392;48.838;2.322;2023-06-05T06:31:15;19.80;23.90
820;DHT22;392;48.838;2.322;2023-06-05T06:33:42;19.60;24.30
820;DHT22;392;48.838;2.322;2023-06-05T06:36:10;19.60;25.20
820;DHT22;392;48.838;2.322;2023-06-05T06:38:38;20.10;24.00
820;DHT22;392;48.838;2.322;2023-06-05T06:41:06;20.50;22.70
820;DHT22;392;48.838;2.322;2023-06-05T06:43:33;20.80;22.40
820;DHT22;392;48.838;2.322;2023-06-05T06:46:04;20.80;21.40
820;DHT22;392;48.838;2.322;2023-06-05T06:48:32;20.60;21.50
820;DHT22;392;48.838;2.322;2023-06-05T06:50:59;20.40;21.60
820;DHT22;392;48.838;2.322;2023-06-05T06:53:29;20.10;22.40
820;DHT22;392;48.838;2.322;2023-06-05T06:55:56;20.00;22.70
820;DHT22;392;48.838;2.322;2023-06-05T06:58:25;20.10;22.70
820;DHT22;392;48.838;2.322;2023-06-05T07:00:53;20.50;22.70
820;DHT22;392;48.838;2.322;2023-06-05T07:03:20;21.10;21.00
820;DHT22;392;48.838;2.322;2023-06-05T07:05:49;21.50;20.80
820;DHT22;392;48.838;2.322;2023-06-05T07:08:17;21.60;19.60
820;DHT22;392;48.838;2.322;2023-06-05T07:10:45;21.70;19.40
820;DHT22;392;48.838;2.322;2023-06-05T07:13:12;21.40;19.70
820;DHT22;392;48.838;2.322;2023-06-05T07:15:41;21.40;19.80
820;DHT22;392;48.838;2.322;2023-06-05T07:18:08;21.60;19.40
820;DHT22;392;48.838;2.322;2023-06-05T07:20:36;21.40;19.70
820;DHT22;392;48.838;2.322;2023-06-05T07:23:03;21.00;20.40
820;DHT22;392;48.838;2.322;2023-06-05T07:25:31;21.30;20.00
820;DHT22;392;48.838;2.322;2023-06-05T07:27:58;21.70;19.00
820;DHT22;392;48.838;2.322;2023-06-05T07:30:26;21.70;19.10
820;DHT22;392;48.838;2.322;2023-06-05T07:32:55;21.80;18.30
820;DHT22;392;48.838;2.322;2023-06-05T07:35:22;21.70;18.20
820;DHT22;392;48.838;2.322;2023-06-05T07:37:52;21.60;18.60
820;DHT22;392;48.838;2.322;2023-06-05T07:40:20;21.70;18.90
820;DHT22;392;48.838;2.322;2023-06-05T07:42:47;22.00;17.70
820;DHT22;392;48.838;2.322;2023-06-05T07:45:15;22.50;18.20
820;DHT22;392;48.838;2.322;2023-06-05T07:47:42;23.20;16.60
820;DHT22;392;48.838;2.322;2023-06-05T07:50:11;23.80;14.90
820;DHT22;392;48.838;2.322;2023-06-05T07:52:38;24.00;14.30
820;DHT22;392;48.838;2.322;2023-06-05T07:55:06;23.70;14.60
820;DHT22;392;48.838;2.322;2023-06-05T07:57:34;23.50;14.90
820;DHT22;392;48.838;2.322;2023-06-05T08:00:02;23.30;15.10
820;DHT22;392;48.838;2.322;2023-06-05T08:02:38;23.10;15.60
820;DHT22;392;48.838;2.322;2023-06-05T08:05:07;22.70;15.90
820;DHT22;392;48.838;2.322;2023-06-05T08:07:37;22.80;15.80
820;DHT22;392;48.838;2.322;2023-06-05T08:10:06;22.90;15.80
820;DHT22;392;48.838;2.322;2023-06-05T08:12:34;23.20;16.10
820;DHT22;392;48.838;2.322;2023-06-05T08:15:01;23.50;14.70
820;DHT22;392;48.838;2.322;2023-06-05T08:17:29;23.60;14.90
820;DHT22;392;48.838;2.322;2023-06-05T08:19:56;24.00;14.10
820;DHT22;392;48.838;2.322;2023-06-05T08:22:24;24.20;14.20
820;DHT22;392;48.838;2.322;2023-06-05T08:24:52;24.70;13.50
820;DHT22;392;48.838;2.322;2023-06-05T08:27:21;25.00;12.50
820;DHT22;392;48.838;2.322;2023-06-05T08:29:49;24.70;12.90
820;DHT22;392;48.838;2.322;2023-06-05T08:32:17;24.50;13.20
820;DHT22;392;48.838;2.322;2023-06-05T08:34:46;24.60;13.50
820;DHT22;392;48.838;2.322;2023-06-05T08:37:13;24.80;13.30
820;DHT22;392;48.838;2.322;2023-06-05T08:39:41;25.30;12.70
820;DHT22;392;48.838;2.322;2023-06-05T08:42:09;25.50;12.20
820;DHT22;392;48.838;2.322;2023-06-05T08:44:40;25.50;11.40
820;DHT22;392;48.838;2.322;2023-06-05T08:47:10;25.50;11.40
820;DHT22;392;48.838;2.322;2023-06-05T08:49:40;25.50;11.60
820;DHT22;392;48.838;2.322;2023-06-05T08:52:09;25.40;12.50
820;DHT22;392;48.838;2.322;2023-06-05T08:54:40;25.90;11.50
820;DHT22;392;48.838;2.322;2023-06-05T08:57:09;26.30;11.10
820;DHT22;392;48.838;2.322;2023-06-05T08:59:36;26.20;11.20
820;DHT22;392;48.838;2.322;2023-06-05T09:02:04;26.50;10.10
820;DHT22;392;48.838;2.322;2023-06-05T09:04:31;27.00;10.00
820;DHT22;392;48.838;2.322;2023-06-05T09:06:59;27.60;8.60
820;DHT22;392;48.838;2.322;2023-06-05T09:09:26;28.10;7.90
820;DHT22;392;48.838;2.322;2023-06-05T09:12:03;28.20;7.30
820;DHT22;392;48.838;2.322;2023-06-05T09:14:33;27.90;8.40
820;DHT22;392;48.838;2.322;2023-06-05T09:17:02;27.80;8.50
820;DHT22;392;48.838;2.322;2023-06-05T09:19:38;27.80;8.60
820;DHT22;392;48.838;2.322;2023-06-05T09:22:07;27.60;8.20
820;DHT22;392;48.838;2.322;2023-06-05T09:24:35;27.80;8.20
820;DHT22;392;48.838;2.322;2023-06-05T09:27:04;28.20;7.90
820;DHT22;392;48.838;2.322;2023-06-05T09:29:36;28.50;7.80
820;DHT22;392;48.838;2.322;2023-06-05T09:32:05;28.80;6.80
820;DHT22;392;48.838;2.322;2023-06-05T09:34:35;28.80;6.60
820;DHT22;392;48.838;2.322;2023-06-05T09:37:04;28.90;6.40
820;DHT22;392;48.838;2.322;2023-06-05T09:39:33;28.90;6.70
820;DHT22;392;48.838;2.322;2023-06-05T09:42:01;28.60;7.50
820;DHT22;392;48.838;2.322;2023-06-05T09:44:30;28.40;7.20
820;DHT22;392;48.838;2.322;2023-06-05T09:47:03;28.20;7.10
820;DHT22;392;48.838;2.322;2023-06-05T09:49:45;28.40;7.70
820;DHT22;392;48.838;2.322;2023-06-05T09:52:14;28.80;6.30
820;DHT22;392;48.838;2.322;2023-06-05T09:54:42;28.80;6.50
820;DHT22;392;48.838;2.322;2023-06-05T09:57:12;28.60;6.60
820;DHT22;392;48.838;2.322;2023-06-05T09:59:45;28.70;6.50
820;DHT22;392;48.838;2.322;2023-06-05T10:02:20;28.80;6.60
820;DHT22;392;48.838;2.322;2023-06-05T10:04:49;29.10;6.30
820;DHT22;392;48.838;2.322;2023-06-05T10:07:19;29.10;6.00
820;DHT22;392;48.838;2.322;2023-06-05T10:09:49;29.50;5.90
820;DHT22;392;48.838;2.322;2023-06-05T10:12:17;29.90;5.90
820;DHT22;392;48.838;2.322;2023-06-05T10:14:44;30.00;4.00
820;DHT22;392;48.838;2.322;2023-06-05T10:17:13;29.50;6.30
820;DHT22;392;48.838;2.322;2023-06-05T10:19:43;29.60;6.00
820;DHT22;392;48.838;2.322;2023-06-05T10:22:11;29.90;4.00
820;DHT22;392;48.838;2.322;2023-06-05T10:24:43;30.30;3.30
820;DHT22;392;48.838;2.322;2023-06-05T10:27:37;30.50;4.30
820;DHT22;392;48.838;2.322;2023-06-05T10:31:10;30.50;3.70
820;DHT22;392;48.838;2.322;2023-06-05T10:33:55;30.70;3.50
820;DHT22;392;48.838;2.322;2023-06-05T10:36:43;30.80;2.00
820;DHT22;392;48.838;2.322;2023-06-05T10:39:22;30.50;1.00
820;DHT22;392;48.838;2.322;2023-06-05T10:41:51;29.80;3.90
820;DHT22;392;48.838;2.322;2023-06-05T10:44:38;29.70;1.60
820;DHT22;392;48.838;2.322;2023-06-05T10:50:28;29.90;3.70
820;DHT22;392;48.838;2.322;2023-06-05T10:52:59;30.30;1.30
820;DHT22;392;48.838;2.322;2023-06-05T10:55:27;30.30;1.00
820;DHT22;392;48.838;2.322;2023-06-05T10:58:09;29.50;1.00
820;DHT22;392;48.838;2.322;2023-06-05T11:01:16;29.00;1.30
820;DHT22;392;48.838;2.322;2023-06-05T11:03:56;29.30;1.00
820;DHT22;392;48.838;2.322;2023-06-05T11:06:24;29.00;1.80
820;DHT22;392;48.838;2.322;2023-06-05T11:09:12;29.00;2.10
820;DHT22;392;48.838;2.322;2023-06-05T11:11:59;29.30;1.40
820;DHT22;392;48.838;2.322;2023-06-05T11:14:44;29.70;1.40
820;DHT22;392;48.838;2.322;2023-06-05T11:17:31;29.80;1.00
820;DHT22;392;48.838;2.322;2023-06-05T11:19:59;29.50;1.00
820;DHT22;392;48.838;2.322;2023-06-05T11:22:30;28.70;1.00
820;DHT22;392;48.838;2.322;2023-06-05T11:25:26;28.40;2.30
820;DHT22;392;48.838;2.322;2023-06-05T11:27:55;28.90;1.30
820;DHT22;392;48.838;2.322;2023-06-05T11:30:28;29.60;1.00
820;DHT22;392;48.838;2.322;2023-06-05T11:33:06;30.10;1.00
820;DHT22;392;48.838;2.322;2023-06-05T11:35:34;30.20;1.00
820;DHT22;392;48.838;2.322;2023-06-05T11:38:09;30.10;1.00
820;DHT22;392;48.838;2.322;2023-06-05T11:40:38;30.00;1.00
820;DHT22;392;48.838;2.322;2023-06-05T11:43:08;29.20;1.00
820;DHT22;392;48.838;2.322;2023-06-05T11:45:38;29.00;1.00
820;DHT22;392;48.838;2.322;2023-06-05T11:48:07;28.80;1.00
820;DHT22;392;48.838;2.322;2023-06-05T11:50:34;28.70;1.00
820;DHT22;392;48.838;2.322;2023-06-05T11:53:06;29.00;1.00
820;DHT22;392;48.838;2.322;2023-06-05T11:55:34;29.40;2.00
820;DHT22;392;48.838;2.322;2023-06-05T11:58:25;29.50;1.00
820;DHT22;392;48.838;2.322;2023-06-05T12:01:05;29.40;1.00
820;DHT22;392;48.838;2.322;2023-06-05T12:03:36;29.70;1.00
820;DHT22;392;48.838;2.322;2023-06-05T12:06:04;29.50;1.00
820;DHT22;392;48.838;2.322;2023-06-05T12:08:34;29.30;1.00
820;DHT22;392;48.838;2.322;2023-06-05T12:11:02;29.10;1.00
820;DHT22;392;48.838;2.322;2023-06-05T12:13:47;28.80;1.00
820;DHT22;392;48.838;2.322;2023-06-05T12:16:16;29.00;1.00
820;DHT22;392;48.838;2.322;2023-06-05T12:18:45;29.00;1.00
820;DHT22;392;48.838;2.322;2023-06-05T12:21:21;28.80;1.00
820;DHT22;392;48.838;2.322;2023-06-05T12:23:49;28.50;1.00
820;DHT22;392;48.838;2.322;2023-06-05T12:26:17;28.60;1.00
820;DHT22;392;48.838;2.322;2023-06-05T12:28:46;28.90;1.00
820;DHT22;392;48.838;2.322;2023-06-05T12:31:35;29.30;1.20
820;DHT22;392;48.838;2.322;2023-06-05T12:34:05;29.30;1.00
820;DHT22;392;48.838;2.322;2023-06-05T12:36:38;29.30;1.00
820;DHT22;392;48.838;2.322;2023-06-05T12:39:08;29.40;1.00
820;DHT22;392;48.838;2.322;2023-06-05T12:41:36;29.20;1.00
820;DHT22;392;48.838;2.322;2023-06-05T12:44:06;28.80;1.00
820;DHT22;392;48.838;2.322;2023-06-05T12:46:34;28.40;1.00
820;DHT22;392;48.838;2.322;2023-06-05T12:49:02;28.30;1.00
820;DHT22;392;48.838;2.322;2023-06-05T12:51:31;28.20;1.00
820;DHT22;392;48.838;2.322;2023-06-05T12:53:58;28.30;1.00
820;DHT22;392;48.838;2.322;2023-06-05T12:56:26;28.60;1.00
820;DHT22;392;48.838;2.322;2023-06-05T12:58:55;28.80;1.00
820;DHT22;392;48.838;2.322;2023-06-05T13:01:26;28.60;1.00
820;DHT22;392;48.838;2.322;2023-06-05T13:03:54;28.60;1.00
820;DHT22;392;48.838;2.322;2023-06-05T13:06:21;28.70;1.00
820;DHT22;392;48.838;2.322;2023-06-05T13:08:48;28.60;1.00
820;DHT22;392;48.838;2.322;2023-06-05T13:11:17;28.30;1.00
820;DHT22;392;48.838;2.322;2023-06-05T13:13:44;28.10;1.00
820;DHT22;392;48.838;2.322;2023-06-05T13:16:11;28.20;1.00
820;DHT22;392;48.838;2.322;2023-06-05T13:18:40;27.90;1.00
820;DHT22;392;48.838;2.322;2023-06-05T13:21:08;27.80;1.00
820;DHT22;392;48.838;2.322;2023-06-05T13:23:35;27.60;1.00
820;DHT22;392;48.838;2.322;2023-06-05T13:26:03;27.70;1.00
820;DHT22;392;48.838;2.322;2023-06-05T13:28:30;27.60;1.00
820;DHT22;392;48.838;2.322;2023-06-05T13:30:57;27.30;1.00
820;DHT22;392;48.838;2.322;2023-06-05T13:33:27;27.10;1.00
820;DHT22;392;48.838;2.322;2023-06-05T13:35:56;26.90;1.00
820;DHT22;392;48.838;2.322;2023-06-05T13:38:24;26.90;1.00
820;DHT22;392;48.838;2.322;2023-06-05T13:40:52;26.90;1.00
820;DHT22;392;48.838;2.322;2023-06-05T13:43:19;26.90;1.00
820;DHT22;392;48.838;2.322;2023-06-05T13:45:48;26.60;1.00
820;DHT22;392;48.838;2.322;2023-06-05T13:48:16;26.30;1.00
820;DHT22;392;48.838;2.322;2023-06-05T13:50:43;26.30;1.00
820;DHT22;392;48.838;2.322;2023-06-05T13:53:12;26.30;1.00
820;DHT22;392;48.838;2.322;2023-06-05T13:55:39;26.30;1.00
820;DHT22;392;48.838;2.322;2023-06-05T13:58:08;26.20;1.00
820;DHT22;392;48.838;2.322;2023-06-05T14:00:37;26.10;1.00
820;DHT22;392;48.838;2.322;2023-06-05T14:03:04;26.10;1.00
820;DHT22;392;48.838;2.322;2023-06-05T14:05:31;26.10;1.30
820;DHT22;392;48.838;2.322;2023-06-05T14:07:59;26.10;1.40
820;DHT22;392;48.838;2.322;2023-06-05T14:10:27;26.20;1.30
820;DHT22;392;48.838;2.322;2023-06-05T14:12:55;26.30;1.00
820;DHT22;392;48.838;2.322;2023-06-05T14:15:22;26.20;2.00
820;DHT22;392;48.838;2.322;2023-06-05T14:17:50;26.30;1.00
820;DHT22;392;48.838;2.322;2023-06-05T14:20:19;26.20;1.30
820;DHT22;392;48.838;2.322;2023-06-05T14:22:46;26.30;1.70
820;DHT22;392;48.838;2.322;2023-06-05T14:25:14;26.20;1.00
820;DHT22;392;48.838;2.322;2023-06-05T14:27:43;26.20;1.10
820;DHT22;392;48.838;2.322;2023-06-05T14:30:11;26.30;1.00
820;DHT22;392;48.838;2.322;2023-06-05T14:32:39;26.30;1.00
820;DHT22;392;48.838;2.322;2023-06-05T14:35:08;26.40;1.00
820;DHT22;392;48.838;2.322;2023-06-05T14:37:36;26.30;2.00
820;DHT22;392;48.838;2.322;2023-06-05T14:40:03;26.30;1.00
820;DHT22;392;48.838;2.322;2023-06-05T14:42:31;26.20;1.00
820;DHT22;392;48.838;2.322;2023-06-05T14:45:00;26.10;1.00
820;DHT22;392;48.838;2.322;2023-06-05T14:47:28;25.90;1.80
820;DHT22;392;48.838;2.322;2023-06-05T14:49:55;25.90;1.90
820;DHT22;392;48.838;2.322;2023-06-05T14:52:23;25.90;1.80
820;DHT22;392;48.838;2.322;2023-06-05T14:54:50;25.90;1.80
820;DHT22;392;48.838;2.322;2023-06-05T14:57:18;25.90;3.70
820;DHT22;392;48.838;2.322;2023-06-05T14:59:45;26.00;2.70
820;DHT22;392;48.838;2.322;2023-06-05T15:02:13;26.10;1.90
820;DHT22;392;48.838;2.322;2023-06-05T15:04:41;26.10;1.90
820;DHT22;392;48.838;2.322;2023-06-05T15:07:08;26.10;2.80
820;DHT22;392;48.838;2.322;2023-06-05T15:09:35;26.20;3.80
820;DHT22;392;48.838;2.322;2023-06-05T15:12:03;26.20;1.30
820;DHT22;392;48.838;2.322;2023-06-05T15:14:31;26.20;1.30
820;DHT22;392;48.838;2.322;2023-06-05T15:16:59;26.20;1.20
820;DHT22;392;48.838;2.322;2023-06-05T15:19:27;26.30;1.00
820;DHT22;392;48.838;2.322;2023-06-05T15:21:54;26.20;1.40
820;DHT22;392;48.838;2.322;2023-06-05T15:24:22;26.10;1.90
820;DHT22;392;48.838;2.322;2023-06-05T15:26:49;26.10;1.90
820;DHT22;392;48.838;2.322;2023-06-05T15:29:16;26.20;2.30
820;DHT22;392;48.838;2.322;2023-06-05T15:31:44;26.20;2.00
820;DHT22;392;48.838;2.322;2023-06-05T15:34:12;26.20;2.50
820;DHT22;392;48.838;2.322;2023-06-05T15:36:40;26.20;2.00
820;DHT22;392;48.838;2.322;2023-06-05T15:39:08;26.30;2.00
820;DHT22;392;48.838;2.322;2023-06-05T15:41:35;26.20;1.90
820;DHT22;392;48.838;2.322;2023-06-05T15:44:02;26.20;2.00
820;DHT22;392;48.838;2.322;2023-06-05T15:46:30;26.10;3.00
820;DHT22;392;48.838;2.322;2023-06-05T15:48:57;26.10;2.90
820;DHT22;392;48.838;2.322;2023-06-05T15:51:24;26.30;3.20
820;DHT22;392;48.838;2.322;2023-06-05T15:53:55;26.40;2.20
820;DHT22;392;48.838;2.322;2023-06-05T15:56:24;26.40;3.00
820;DHT22;392;48.838;2.322;2023-06-05T15:58:52;26.40;3.30
820;DHT22;392;48.838;2.322;2023-06-05T16:01:19;26.50;4.10
820;DHT22;392;48.838;2.322;2023-06-05T16:03:47;26.50;4.10
820;DHT22;392;48.838;2.322;2023-06-05T16:06:14;26.50;2.50
820;DHT22;392;48.838;2.322;2023-06-05T16:08:43;26.60;3.10
820;DHT22;392;48.838;2.322;2023-06-05T16:11:12;26.60;2.80
820;DHT22;392;48.838;2.322;2023-06-05T16:13:39;26.30;3.10
820;DHT22;392;48.838;2.322;2023-06-05T16:16:07;26.00;3.50
820;DHT22;392;48.838;2.322;2023-06-05T16:18:34;25.90;3.50
820;DHT22;392;48.838;2.322;2023-06-05T16:21:02;25.80;3.90
820;DHT22;392;48.838;2.322;2023-06-05T16:23:29;25.70;4.00
820;DHT22;392;48.838;2.322;2023-06-05T16:25:56;25.70;4.20
820;DHT22;392;48.838;2.322;2023-06-05T16:28:25;25.70;5.00
820;DHT22;392;48.838;2.322;2023-06-05T16:30:52;25.70;5.00
820;DHT22;392;48.838;2.322;2023-06-05T16:33:20;25.80;4.80
820;DHT22;392;48.838;2.322;2023-06-05T16:35:47;25.60;4.70
820;DHT22;392;48.838;2.322;2023-06-05T16:38:14;25.60;4.80
820;DHT22;392;48.838;2.322;2023-06-05T16:40:42;25.70;6.10
820;DHT22;392;48.838;2.322;2023-06-05T16:43:09;25.70;5.10
820;DHT22;392;48.838;2.322;2023-06-05T16:45:38;25.70;5.40
820;DHT22;392;48.838;2.322;2023-06-05T16:48:05;25.80;5.10
820;DHT22;392;48.838;2.322;2023-06-05T16:50:35;25.70;4.40
820;DHT22;392;48.838;2.322;2023-06-05T16:53:02;25.60;4.50
820;DHT22;392;48.838;2.322;2023-06-05T16:55:30;25.60;5.20
820;DHT22;392;48.838;2.322;2023-06-05T16:57:57;25.60;4.60
820;DHT22;392;48.838;2.322;2023-06-05T17:00:25;25.50;4.50